sensor_id;sensor_type;location;lat;lon;timestamp;P1;durP1;ratioP1;P2;durP2;ratioP2
36995;SDS011;22905;50.340;10.776;2023-11-19T00:00:15;17.42;;;10.88;;
36995;SDS011;22905;50.340;10.776;2023-11-19T00:05:16;16.13;;;10.10;;
36995;SDS011;22905;50.340;10.776;2023-11-19T00:10:16;19.60;;;11.65;;
36995;SDS011;22905;50.340;10.776;2023-11-19T00:15:20;16.55;;;10.43;;
36995;SDS011;22905;50.340;10.776;2023-11-19T00:20:21;20.93;;;11.30;;
36995;SDS011;22905;50.340;10.776;2023-11-19T00:25:24;21.42;;;11.15;;
36995;SDS011;22905;50.340;10.776;2023-11-19T00:30:25;18.95;;;11.32;;
36995;SDS011;22905;50.340;10.776;2023-11-19T00:35:25;15.88;;;10.18;;
36995;SDS011;22905;50.340;10.776;2023-11-19T00:40:25;16.05;;;10.25;;
36995;SDS011;22905;50.340;10.776;2023-11-19T00:45:26;19.93;;;10.60;;
36995;SDS011;22905;50.340;10.776;2023-11-19T00:50:27;17.83;;;10.63;;
36995;SDS011;22905;50.340;10.776;2023-11-19T00:55:27;17.90;;;10.40;;
36995;SDS011;22905;50.340;10.776;2023-11-19T01:00:27;19.67;;;10.85;;
36995;SDS011;22905;50.340;10.776;2023-11-19T01:05:28;17.92;;;10.30;;
36995;SDS011;22905;50.340;10.776;2023-11-19T01:10:28;17.77;;;10.57;;
36995;SDS011;22905;50.340;10.776;2023-11-19T01:15:28;20.30;;;10.93;;
36995;SDS011;22905;50.340;10.776;2023-11-19T01:20:29;22.20;;;10.80;;
36995;SDS011;22905;50.340;10.776;2023-11-19T01:25:29;22.50;;;10.80;;
36995;SDS011;22905;50.340;10.776;2023-11-19T01:30:29;18.10;;;9.13;;
36995;SDS011;22905;50.340;10.776;2023-11-19T01:35:30;15.70;;;9.20;;
36995;SDS011;22905;50.340;10.776;2023-11-19T01:40:31;14.43;;;9.20;;
36995;SDS011;22905;50.340;10.776;2023-11-19T01:45:31;13.27;;;8.30;;
36995;SDS011;22905;50.340;10.776;2023-11-19T01:50:32;16.85;;;9.50;;
36995;SDS011;22905;50.340;10.776;2023-11-19T01:55:33;15.13;;;9.15;;
36995;SDS011;22905;50.340;10.776;2023-11-19T02:00:33;17.10;;;9.10;;
36995;SDS011;22905;50.340;10.776;2023-11-19T02:05:34;15.90;;;9.00;;
36995;SDS011;22905;50.340;10.776;2023-11-19T02:10:34;22.35;;;11.15;;
36995;SDS011;22905;50.340;10.776;2023-11-19T02:15:35;13.93;;;8.05;;
36995;SDS011;22905;50.340;10.776;2023-11-19T02:20:36;14.20;;;8.65;;
36995;SDS011;22905;50.340;10.776;2023-11-19T02:25:36;17.33;;;9.52;;
36995;SDS011;22905;50.340;10.776;2023-11-19T02:30:37;12.68;;;7.53;;
36995;SDS011;22905;50.340;10.776;2023-11-19T02:35:38;11.05;;;6.57;;
36995;SDS011;22905;50.340;10.776;2023-11-19T02:40:40;12.93;;;8.13;;
36995;SDS011;22905;50.340;10.776;2023-11-19T02:45:40;15.57;;;9.70;;
36995;SDS011;22905;50.340;10.776;2023-11-19T02:50:42;17.83;;;11.18;;
36995;SDS011;22905;50.340;10.776;2023-11-19T02:55:42;23.10;;;14.23;;
36995;SDS011;22905;50.340;10.776;2023-11-19T03:00:48;18.38;;;11.55;;
36995;SDS011;22905;50.340;10.776;2023-11-19T03:05:54;15.98;;;9.02;;
36995;SDS011;22905;50.340;10.776;2023-11-19T03:10:55;10.70;;;6.45;;
36995;SDS011;22905;50.340;10.776;2023-11-19T03:15:55;12.93;;;5.37;;
36995;SDS011;22905;50.340;10.776;2023-11-19T03:20:55;7.80;;;4.80;;
36995;SDS011;22905;50.340;10.776;2023-11-19T03:30:59;10.38;;;6.00;;
36995;SDS011;22905;50.340;10.776;2023-11-19T03:35:59;9.83;;;6.07;;
36995;SDS011;22905;50.340;10.776;2023-11-19T03:40:59;10.67;;;6.50;;
36995;SDS011;22905;50.340;10.776;2023-11-19T03:46:00;9.17;;;6.33;;
36995;SDS011;22905;50.340;10.776;2023-11-19T03:51:00;9.90;;;6.35;;
36995;SDS011;22905;50.340;10.776;2023-11-19T03:56:00;8.97;;;5.67;;
36995;SDS011;22905;50.340;10.776;2023-11-19T04:01:01;11.93;;;6.30;;
36995;SDS011;22905;50.340;10.776;2023-11-19T04:06:02;9.02;;;6.38;;
36995;SDS011;22905;50.340;10.776;2023-11-19T04:11:04;10.57;;;5.75;;
36995;SDS011;22905;50.340;10.776;2023-11-19T04:16:04;9.55;;;6.32;;
36995;SDS011;22905;50.340;10.776;2023-11-19T04:21:05;9.93;;;6.43;;
36995;SDS011;22905;50.340;10.776;2023-11-19T04:26:06;9.90;;;6.50;;
36995;SDS011;22905;50.340;10.776;2023-11-19T04:31:07;10.00;;;6.60;;
36995;SDS011;22905;50.340;10.776;2023-11-19T04:36:09;11.00;;;6.93;;
36995;SDS011;22905;50.340;10.776;2023-11-19T04:41:10;11.30;;;6.78;;
36995;SDS011;22905;50.340;10.776;2023-11-19T04:46:11;12.90;;;7.25;;
36995;SDS011;22905;50.340;10.776;2023-11-19T04:51:11;12.30;;;7.63;;
36995;SDS011;22905;50.340;10.776;2023-11-19T04:56:11;11.77;;;7.40;;
36995;SDS011;22905;50.340;10.776;2023-11-19T05:01:14;13.25;;;7.85;;
36995;SDS011;22905;50.340;10.776;2023-11-19T05:06:18;14.02;;;9.20;;
36995;SDS011;22905;50.340;10.776;2023-11-19T05:11:18;16.83;;;8.27;;
36995;SDS011;22905;50.340;10.776;2023-11-19T05:16:20;14.85;;;9.15;;
36995;SDS011;22905;50.340;10.776;2023-11-19T05:21:21;15.80;;;9.32;;
36995;SDS011;22905;50.340;10.776;2023-11-19T05:26:22;17.67;;;8.82;;
36995;SDS011;22905;50.340;10.776;2023-11-19T05:31:22;15.65;;;9.70;;
36995;SDS011;22905;50.340;10.776;2023-11-19T05:36:23;17.85;;;10.18;;
36995;SDS011;22905;50.340;10.776;2023-11-19T05:41:23;17.65;;;10.00;;
36995;SDS011;22905;50.340;10.776;2023-11-19T05:46:24;18.55;;;10.13;;
36995;SDS011;22905;50.340;10.776;2023-11-19T05:56:27;21.55;;;10.13;;
36995;SDS011;22905;50.340;10.776;2023-11-19T06:01:35;20.90;;;10.80;;
36995;SDS011;22905;50.340;10.776;2023-11-19T06:06:36;17.65;;;10.20;;
36995;SDS011;22905;50.340;10.776;2023-11-19T06:11:36;19.88;;;10.43;;
36995;SDS011;22905;50.340;10.776;2023-11-19T06:16:36;19.98;;;10.93;;
36995;SDS011;22905;50.340;10.776;2023-11-19T06:21:39;17.55;;;10.25;;
36995;SDS011;22905;50.340;10.776;2023-11-19T06:26:39;24.43;;;12.13;;
36995;SDS011;22905;50.340;10.776;2023-11-19T06:31:40;23.20;;;12.35;;
36995;SDS011;22905;50.340;10.776;2023-11-19T06:36:41;21.33;;;11.90;;
36995;SDS011;22905;50.340;10.776;2023-11-19T06:41:46;26.63;;;17.77;;
36995;SDS011;22905;50.340;10.776;2023-11-19T06:46:48;29.67;;;19.42;;
36995;SDS011;22905;50.340;10.776;2023-11-19T06:51:48;29.38;;;15.90;;
36995;SDS011;22905;50.340;10.776;2023-11-19T06:56:49;21.27;;;13.23;;
36995;SDS011;22905;50.340;10.776;2023-11-19T07:01:49;28.33;;;15.33;;
36995;SDS011;22905;50.340;10.776;2023-11-19T07:06:49;27.30;;;15.60;;
36995;SDS011;22905;50.340;10.776;2023-11-19T07:11:50;22.77;;;12.57;;
36995;SDS011;22905;50.340;10.776;2023-11-19T07:16:53;24.25;;;12.50;;
36995;SDS011;22905;50.340;10.776;2023-11-19T07:21:55;24.60;;;12.87;;
36995;SDS011;22905;50.340;10.776;2023-11-19T07:26:56;27.60;;;13.88;;
36995;SDS011;22905;50.340;10.776;2023-11-19T07:31:56;28.07;;;13.83;;
36995;SDS011;22905;50.340;10.776;2023-11-19T07:36:57;25.00;;;14.27;;
36995;SDS011;22905;50.340;10.776;2023-11-19T07:41:59;56.08;;;39.65;;
36995;SDS011;22905;50.340;10.776;2023-11-19T07:47:00;51.78;;;33.75;;
36995;SDS011;22905;50.340;10.776;2023-11-19T07:52:00;39.07;;;22.80;;
36995;SDS011;22905;50.340;10.776;2023-11-19T07:57:01;32.28;;;17.17;;
36995;SDS011;22905;50.340;10.776;2023-11-19T08:02:01;28.35;;;15.43;;
36995;SDS011;22905;50.340;10.776;2023-11-19T08:07:02;42.90;;;21.42;;
36995;SDS011;22905;50.340;10.776;2023-11-19T08:12:03;34.42;;;17.80;;
36995;SDS011;22905;50.340;10.776;2023-11-19T08:17:03;25.00;;;14.65;;
36995;SDS011;22905;50.340;10.776;2023-11-19T08:22:04;22.83;;;13.43;;
36995;SDS011;22905;50.340;10.776;2023-11-19T08:27:04;24.08;;;14.15;;
36995;SDS011;22905;50.340;10.776;2023-11-19T08:32:05;18.58;;;11.80;;
36995;SDS011;22905;50.340;10.776;2023-11-19T08:37:06;16.55;;;10.30;;
36995;SDS011;22905;50.340;10.776;2023-11-19T08:42:06;16.77;;;9.73;;
36995;SDS011;22905;50.340;10.776;2023-11-19T08:47:07;13.65;;;8.70;;
36995;SDS011;22905;50.340;10.776;2023-11-19T08:52:07;13.68;;;8.38;;
36995;SDS011;22905;50.340;10.776;2023-11-19T08:57:07;9.40;;;6.68;;
36995;SDS011;22905;50.340;10.776;2023-11-19T09:02:08;9.25;;;6.53;;
36995;SDS011;22905;50.340;10.776;2023-11-19T09:07:09;8.02;;;5.60;;
36995;SDS011;22905;50.340;10.776;2023-11-19T09:12:10;9.40;;;6.03;;
36995;SDS011;22905;50.340;10.776;2023-11-19T09:17:10;5.53;;;3.88;;
36995;SDS011;22905;50.340;10.776;2023-11-19T09:22:10;10.93;;;5.77;;
36995;SDS011;22905;50.340;10.776;2023-11-19T09:27:10;7.32;;;5.00;;
36995;SDS011;22905;50.340;10.776;2023-11-19T09:32:11;6.18;;;4.50;;
36995;SDS011;22905;50.340;10.776;2023-11-19T09:37:11;6.70;;;4.55;;
36995;SDS011;22905;50.340;10.776;2023-11-19T09:42:12;7.40;;;2.10;;
36995;SDS011;22905;50.340;10.776;2023-11-19T09:47:12;3.53;;;2.13;;
36995;SDS011;22905;50.340;10.776;2023-11-19T09:52:14;4.35;;;2.05;;
36995;SDS011;22905;50.340;10.776;2023-11-19T09:57:14;2.93;;;2.00;;
36995;SDS011;22905;50.340;10.776;2023-11-19T10:02:17;5.78;;;2.80;;
36995;SDS011;22905;50.340;10.776;2023-11-19T10:07:18;3.03;;;1.90;;
36995;SDS011;22905;50.340;10.776;2023-11-19T10:12:18;4.15;;;1.88;;
36995;SDS011;22905;50.340;10.776;2023-11-19T10:17:19;2.83;;;1.67;;
36995;SDS011;22905;50.340;10.776;2023-11-19T10:22:19;9.05;;;2.20;;
36995;SDS011;22905;50.340;10.776;2023-11-19T10:27:19;2.67;;;1.40;;
36995;SDS011;22905;50.340;10.776;2023-11-19T10:32:19;4.90;;;1.73;;
36995;SDS011;22905;50.340;10.776;2023-11-19T10:37:30;4.57;;;1.83;;
36995;SDS011;22905;50.340;10.776;2023-11-19T10:42:32;5.73;;;1.70;;
36995;SDS011;22905;50.340;10.776;2023-11-19T10:47:32;6.20;;;1.45;;
36995;SDS011;22905;50.340;10.776;2023-11-19T10:52:33;4.70;;;1.67;;
36995;SDS011;22905;50.340;10.776;2023-11-19T10:57:36;5.87;;;1.77;;
36995;SDS011;22905;50.340;10.776;2023-11-19T11:02:37;8.15;;;2.03;;
36995;SDS011;22905;50.340;10.776;2023-11-19T11:07:41;10.32;;;2.05;;
36995;SDS011;22905;50.340;10.776;2023-11-19T11:12:43;5.73;;;1.80;;
36995;SDS011;22905;50.340;10.776;2023-11-19T11:17:43;4.90;;;1.58;;
36995;SDS011;22905;50.340;10.776;2023-11-19T11:22:49;9.93;;;2.65;;
36995;SDS011;22905;50.340;10.776;2023-11-19T11:33:35;13.82;;;1.92;;
36995;SDS011;22905;50.340;10.776;2023-11-19T11:38:42;13.55;;;1.83;;
36995;SDS011;22905;50.340;10.776;2023-11-19T11:43:43;7.65;;;1.63;;
36995;SDS011;22905;50.340;10.776;2023-11-19T11:48:44;10.35;;;1.60;;
36995;SDS011;22905;50.340;10.776;2023-11-19T11:53:47;6.50;;;2.15;;
36995;SDS011;22905;50.340;10.776;2023-11-19T11:58:47;8.27;;;1.83;;
36995;SDS011;22905;50.340;10.776;2023-11-19T12:03:48;7.17;;;1.57;;
36995;SDS011;22905;50.340;10.776;2023-11-19T12:08:51;14.10;;;1.85;;
36995;SDS011;22905;50.340;10.776;2023-11-19T12:13:55;11.40;;;2.47;;
36995;SDS011;22905;50.340;10.776;2023-11-19T12:19:02;11.00;;;2.22;;
36995;SDS011;22905;50.340;10.776;2023-11-19T12:24:04;12.13;;;2.83;;
36995;SDS011;22905;50.340;10.776;2023-11-19T12:29:07;6.35;;;1.70;;
36995;SDS011;22905;50.340;10.776;2023-11-19T12:34:08;16.83;;;4.90;;
36995;SDS011;22905;50.340;10.776;2023-11-19T12:39:11;9.40;;;2.10;;
36995;SDS011;22905;50.340;10.776;2023-11-19T12:44:12;12.85;;;2.40;;
36995;SDS011;22905;50.340;10.776;2023-11-19T12:49:13;11.75;;;2.65;;
36995;SDS011;22905;50.340;10.776;2023-11-19T12:54:13;7.85;;;1.98;;
36995;SDS011;22905;50.340;10.776;2023-11-19T12:59:14;9.48;;;2.55;;
36995;SDS011;22905;50.340;10.776;2023-11-19T13:04:17;11.57;;;2.90;;
36995;SDS011;22905;50.340;10.776;2023-11-19T13:09:25;14.98;;;2.58;;
36995;SDS011;22905;50.340;10.776;2023-11-19T13:14:37;14.45;;;2.45;;
36995;SDS011;22905;50.340;10.776;2023-11-19T13:19:38;15.50;;;2.50;;
36995;SDS011;22905;50.340;10.776;2023-11-19T13:24:38;9.50;;;2.50;;
36995;SDS011;22905;50.340;10.776;2023-11-19T13:29:40;15.95;;;2.85;;
36995;SDS011;22905;50.340;10.776;2023-11-19T13:34:40;11.00;;;4.18;;
36995;SDS011;22905;50.340;10.776;2023-11-19T13:39:44;15.13;;;4.38;;
36995;SDS011;22905;50.340;10.776;2023-11-19T13:44:44;15.15;;;3.72;;
36995;SDS011;22905;50.340;10.776;2023-11-19T13:49:45;16.52;;;3.95;;
36995;SDS011;22905;50.340;10.776;2023-11-19T13:54:45;23.65;;;7.60;;
36995;SDS011;22905;50.340;10.776;2023-11-19T13:59:45;16.60;;;3.87;;
36995;SDS011;22905;50.340;10.776;2023-11-19T14:04:46;42.63;;;16.20;;
36995;SDS011;22905;50.340;10.776;2023-11-19T14:09:46;38.00;;;14.27;;
36995;SDS011;22905;50.340;10.776;2023-11-19T14:14:46;27.55;;;9.90;;
36995;SDS011;22905;50.340;10.776;2023-11-19T14:19:47;34.13;;;13.13;;
36995;SDS011;22905;50.340;10.776;2023-11-19T14:24:47;30.98;;;11.30;;
36995;SDS011;22905;50.340;10.776;2023-11-19T14:29:47;21.40;;;6.67;;
36995;SDS011;22905;50.340;10.776;2023-11-19T14:34:48;14.13;;;4.00;;
36995;SDS011;22905;50.340;10.776;2023-11-19T14:39:48;10.83;;;2.50;;
36995;SDS011;22905;50.340;10.776;2023-11-19T14:44:53;12.80;;;3.60;;
36995;SDS011;22905;50.340;10.776;2023-11-19T14:49:54;14.02;;;3.03;;
36995;SDS011;22905;50.340;10.776;2023-11-19T14:54:54;11.45;;;2.95;;
36995;SDS011;22905;50.340;10.776;2023-11-19T14:59:56;21.47;;;3.20;;
36995;SDS011;22905;50.340;10.776;2023-11-19T15:04:56;14.15;;;2.30;;
36995;SDS011;22905;50.340;10.776;2023-11-19T15:09:57;9.48;;;3.05;;
36995;SDS011;22905;50.340;10.776;2023-11-19T15:14:57;9.63;;;2.60;;
36995;SDS011;22905;50.340;10.776;2023-11-19T15:19:57;12.63;;;3.27;;
36995;SDS011;22905;50.340;10.776;2023-11-19T15:24:58;16.33;;;2.53;;
36995;SDS011;22905;50.340;10.776;2023-11-19T15:29:58;21.17;;;4.07;;
36995;SDS011;22905;50.340;10.776;2023-11-19T15:34:58;15.18;;;4.18;;
36995;SDS011;22905;50.340;10.776;2023-11-19T15:39:58;13.57;;;2.80;;
36995;SDS011;22905;50.340;10.776;2023-11-19T15:44:59;13.50;;;3.10;;
36995;SDS011;22905;50.340;10.776;2023-11-19T15:49:59;10.32;;;2.53;;
36995;SDS011;22905;50.340;10.776;2023-11-19T15:54:59;11.63;;;2.70;;
36995;SDS011;22905;50.340;10.776;2023-11-19T16:00:00;10.80;;;3.08;;
36995;SDS011;22905;50.340;10.776;2023-11-19T16:05:00;15.32;;;4.38;;
36995;SDS011;22905;50.340;10.776;2023-11-19T16:10:00;14.30;;;3.03;;
36995;SDS011;22905;50.340;10.776;2023-11-19T16:15:04;9.65;;;2.53;;
36995;SDS011;22905;50.340;10.776;2023-11-19T16:20:05;13.90;;;2.97;;
36995;SDS011;22905;50.340;10.776;2023-11-19T16:25:06;13.33;;;2.97;;
36995;SDS011;22905;50.340;10.776;2023-11-19T16:30:07;12.30;;;4.60;;
36995;SDS011;22905;50.340;10.776;2023-11-19T16:35:08;12.45;;;3.22;;
36995;SDS011;22905;50.340;10.776;2023-11-19T16:40:10;13.15;;;3.88;;
36995;SDS011;22905;50.340;10.776;2023-11-19T16:45:11;19.95;;;6.97;;
36995;SDS011;22905;50.340;10.776;2023-11-19T16:50:12;15.20;;;3.05;;
36995;SDS011;22905;50.340;10.776;2023-11-19T16:55:12;15.50;;;4.70;;
36995;SDS011;22905;50.340;10.776;2023-11-19T17:00:13;15.35;;;4.15;;
36995;SDS011;22905;50.340;10.776;2023-11-19T17:05:13;13.30;;;5.15;;
36995;SDS011;22905;50.340;10.776;2023-11-19T17:10:14;19.90;;;4.25;;
36995;SDS011;22905;50.340;10.776;2023-11-19T17:15:15;24.23;;;4.37;;
36995;SDS011;22905;50.340;10.776;2023-11-19T17:20:15;18.50;;;4.83;;
36995;SDS011;22905;50.340;10.776;2023-11-19T17:25:17;20.08;;;6.65;;
36995;SDS011;22905;50.340;10.776;2023-11-19T17:30:18;20.60;;;4.93;;
36995;SDS011;22905;50.340;10.776;2023-11-19T17:35:18;14.75;;;4.55;;
36995;SDS011;22905;50.340;10.776;2023-11-19T17:40:18;37.10;;;15.23;;
36995;SDS011;22905;50.340;10.776;2023-11-19T17:45:19;17.75;;;8.40;;
36995;SDS011;22905;50.340;10.776;2023-11-19T17:50:19;28.38;;;9.40;;
36995;SDS011;22905;50.340;10.776;2023-11-19T17:55:25;22.55;;;6.15;;
36995;SDS011;22905;50.340;10.776;2023-11-19T18:00:26;15.77;;;5.35;;
36995;SDS011;22905;50.340;10.776;2023-11-19T18:05:27;15.00;;;4.60;;
36995;SDS011;22905;50.340;10.776;2023-11-19T18:10:28;15.13;;;4.50;;
36995;SDS011;22905;50.340;10.776;2023-11-19T18:15:28;15.02;;;5.53;;
36995;SDS011;22905;50.340;10.776;2023-11-19T18:20:29;13.05;;;4.45;;
36995;SDS011;22905;50.340;10.776;2023-11-19T18:25:29;15.52;;;4.45;;
36995;SDS011;22905;50.340;10.776;2023-11-19T18:30:29;15.55;;;3.80;;
36995;SDS011;22905;50.340;10.776;2023-11-19T18:35:30;16.13;;;2.67;;
36995;SDS011;22905;50.340;10.776;2023-11-19T18:40:31;12.02;;;3.25;;
36995;SDS011;22905;50.340;10.776;2023-11-19T18:45:31;11.07;;;3.33;;
36995;SDS011;22905;50.340;10.776;2023-11-19T18:50:32;13.83;;;3.00;;
36995;SDS011;22905;50.340;10.776;2023-11-19T18:55:32;13.37;;;3.97;;
36995;SDS011;22905;50.340;10.776;2023-11-19T19:00:32;14.23;;;3.70;;
36995;SDS011;22905;50.340;10.776;2023-11-19T19:05:33;10.40;;;3.20;;
36995;SDS011;22905;50.340;10.776;2023-11-19T19:10:33;10.75;;;2.47;;
36995;SDS011;22905;50.340;10.776;2023-11-19T19:15:37;13.35;;;3.08;;
36995;SDS011;22905;50.340;10.776;2023-11-19T19:20:37;10.32;;;3.35;;
36995;SDS011;22905;50.340;10.776;2023-11-19T19:25:37;21.83;;;6.27;;
36995;SDS011;22905;50.340;10.776;2023-11-19T19:30:38;27.52;;;9.38;;
36995;SDS011;22905;50.340;10.776;2023-11-19T19:35:38;17.02;;;3.80;;
36995;SDS011;22905;50.340;10.776;2023-11-19T19:40:39;15.23;;;3.03;;
36995;SDS011;22905;50.340;10.776;2023-11-19T19:45:39;17.73;;;4.03;;
36995;SDS011;22905;50.340;10.776;2023-11-19T19:50:39;11.90;;;2.97;;
36995;SDS011;22905;50.340;10.776;2023-11-19T19:55:40;14.38;;;4.47;;
36995;SDS011;22905;50.340;10.776;2023-11-19T20:00:40;8.73;;;2.28;;
36995;SDS011;22905;50.340;10.776;2023-11-19T20:05:40;10.77;;;2.27;;
36995;SDS011;22905;50.340;10.776;2023-11-19T20:10:41;13.35;;;2.92;;
36995;SDS011;22905;50.340;10.776;2023-11-19T20:15:41;17.13;;;2.80;;
36995;SDS011;22905;50.340;10.776;2023-11-19T20:20:42;10.27;;;2.22;;
36995;SDS011;22905;50.340;10.776;2023-11-19T20:25:43;17.35;;;3.47;;
36995;SDS011;22905;50.340;10.776;2023-11-19T20:30:43;12.93;;;3.13;;
36995;SDS011;22905;50.340;10.776;2023-11-19T20:35:44;12.52;;;2.42;;
36995;SDS011;22905;50.340;10.776;2023-11-19T20:40:45;12.60;;;3.75;;
36995;SDS011;22905;50.340;10.776;2023-11-19T20:45:45;15.60;;;3.93;;
36995;SDS011;22905;50.340;10.776;2023-11-19T20:50:45;16.27;;;3.70;;
36995;SDS011;22905;50.340;10.776;2023-11-19T20:55:46;19.15;;;3.40;;
36995;SDS011;22905;50.340;10.776;2023-11-19T21:00:47;12.18;;;3.50;;
36995;SDS011;22905;50.340;10.776;2023-11-19T21:05:47;13.25;;;3.00;;
36995;SDS011;22905;50.340;10.776;2023-11-19T21:10:54;18.17;;;3.25;;
36995;SDS011;22905;50.340;10.776;2023-11-19T21:15:54;28.88;;;3.92;;
36995;SDS011;22905;50.340;10.776;2023-11-19T21:20:55;20.58;;;3.22;;
36995;SDS011;22905;50.340;10.776;2023-11-19T21:25:56;14.90;;;2.75;;
36995;SDS011;22905;50.340;10.776;2023-11-19T21:30:58;18.15;;;2.40;;
36995;SDS011;22905;50.340;10.776;2023-11-19T21:35:59;19.00;;;3.40;;
36995;SDS011;22905;50.340;10.776;2023-11-19T21:41:00;15.27;;;2.70;;
36995;SDS011;22905;50.340;10.776;2023-11-19T21:46:01;20.67;;;3.58;;
36995;SDS011;22905;50.340;10.776;2023-11-19T21:51:02;11.50;;;2.30;;
36995;SDS011;22905;50.340;10.776;2023-11-19T21:56:04;13.15;;;3.78;;
36995;SDS011;22905;50.340;10.776;2023-11-19T22:01:04;19.50;;;3.10;;
36995;SDS011;22905;50.340;10.776;2023-11-19T22:06:05;17.20;;;2.60;;
36995;SDS011;22905;50.340;10.776;2023-11-19T22:11:05;21.10;;;3.17;;
36995;SDS011;22905;50.340;10.776;2023-11-19T22:16:06;16.33;;;3.67;;
36995;SDS011;22905;50.340;10.776;2023-11-19T22:21:09;13.68;;;4.07;;
36995;SDS011;22905;50.340;10.776;2023-11-19T22:26:09;22.80;;;4.33;;
36995;SDS011;22905;50.340;10.776;2023-11-19T22:31:10;51.42;;;21.60;;
36995;SDS011;22905;50.340;10.776;2023-11-19T22:36:10;25.48;;;9.35;;
36995;SDS011;22905;50.340;10.776;2023-11-19T22:41:11;25.85;;;4.15;;
36995;SDS011;22905;50.340;10.776;2023-11-19T22:46:11;16.15;;;3.75;;
36995;SDS011;22905;50.340;10.776;2023-11-19T22:51:12;15.15;;;4.15;;
36995;SDS011;22905;50.340;10.776;2023-11-19T22:56:14;18.77;;;4.00;;
36995;SDS011;22905;50.340;10.776;2023-11-19T23:01:16;11.70;;;2.87;;
36995;SDS011;22905;50.340;10.776;2023-11-19T23:06:17;19.63;;;3.33;;
36995;SDS011;22905;50.340;10.776;2023-11-19T23:11:19;11.90;;;2.83;;
36995;SDS011;22905;50.340;10.776;2023-11-19T23:16:19;21.23;;;4.33;;
36995;SDS011;22905;50.340;10.776;2023-11-19T23:21:23;15.00;;;3.03;;
36995;SDS011;22905;50.340;10.776;2023-11-19T23:26:23;16.27;;;3.45;;
36995;SDS011;22905;50.340;10.776;2023-11-19T23:31:23;12.40;;;2.27;;
36995;SDS011;22905;50.340;10.776;2023-11-19T23:36:24;23.73;;;3.70;;
36995;SDS011;22905;50.340;10.776;2023-11-19T23:41:24;17.90;;;4.20;;
36995;SDS011;22905;50.340;10.776;2023-11-19T23:46:25;12.27;;;2.65;;
36995;SDS011;22905;50.340;10.776;2023-11-19T23:51:26;19.80;;;3.65;;
36995;SDS011;22905;50.340;10.776;2023-11-19T23:56:26;23.02;;;4.07;;
